Search for airport 
image banner adimage banner adimage banner ad
image banner ad

KBUR - Bob Hope

Located in Burbank, United States

ICAO - BUR, IATA - BUR

Data provided by Airmate  

General information

Coordinates: N34°12'2" W118°21'31"
Elevation is 778 feet MSL.
Magnetic variation is 12° East
View others Airports in California

Operational data

Special qualification required
Current time UTC:
Current local time:
Weather
METAR: KBUR 141153Z 31003KT 10SM CLR 18/11 A2990 RMK AO2 SLP112 T01830111 10217 20178 50000 $
TAF: KBUR 141128Z 1412/1512 12006KT P6SM SKC FM141900 18010KT P6SM SKC FM150300 12006KT P6SM SKC FM150700 VRB03KT P6SM SKC
View NOTAMs / SUP AIP / TFR affecting this airport [VIEW]
Communications frequencies: [VIEW]

Runways:

RWY identifierQFULength (ft)Width (ft)SurfaceLDA (ft)
0891°5802150OTHER5801
26271°5802150OTHER5801
15167°6886150OTHER5976
33347°6886150OTHER6535

Airport contact information

Address: Burbank United States

Other aviation service providers

Flight schools

Orbic Air, Llc

Orbic Air, Llc
fly@orbicair.com+1(818)561-4838

Satellite view of KBUR